createdAt,value
2017-05-28T00:01:33.262Z,21.80
2017-05-28T00:04:01.583Z,21.70
2017-05-28T00:06:29.895Z,21.70
2017-05-28T00:08:58.605Z,21.60
2017-05-28T00:11:26.926Z,21.60
2017-05-28T00:13:55.243Z,21.60
2017-05-28T00:16:23.598Z,21.50
2017-05-28T00:18:51.979Z,21.50
2017-05-28T00:21:20.290Z,21.50
2017-05-28T00:23:48.614Z,21.40
2017-05-28T00:26:17.674Z,21.40
2017-05-28T00:28:45.995Z,21.40
2017-05-28T00:31:14.319Z,21.40
2017-05-28T00:33:42.674Z,21.30
2017-05-28T00:36:10.991Z,21.30
2017-05-28T00:38:42.033Z,21.20
2017-05-28T00:41:10.349Z,21.20
2017-05-28T00:43:38.665Z,21.10
2017-05-28T00:46:07.189Z,21.00
2017-05-28T00:48:35.510Z,21.00
2017-05-28T00:51:03.878Z,21.00
2017-05-28T00:53:32.205Z,20.90
2017-05-28T00:56:00.864Z,20.90
2017-05-28T00:58:29.182Z,20.90
2017-05-28T01:00:57.506Z,20.80
2017-05-28T01:03:26.039Z,20.80
2017-05-28T01:05:54.407Z,20.70
2017-05-28T01:08:22.727Z,20.80
2017-05-28T01:10:51.090Z,20.80
2017-05-28T01:13:19.474Z,20.70
2017-05-28T01:15:47.790Z,20.70
2017-05-28T01:18:16.110Z,20.70
2017-05-28T01:20:44.575Z,20.60
2017-05-28T01:23:12.899Z,20.60
2017-05-28T01:25:41.414Z,20.60
2017-05-28T01:28:09.727Z,20.60
2017-05-28T01:30:38.047Z,20.60
2017-05-28T01:33:06.502Z,20.60
2017-05-28T01:35:34.818Z,20.60
2017-05-28T01:38:03.155Z,20.60
2017-05-28T01:40:32.031Z,20.60
2017-05-28T01:43:00.406Z,20.60
2017-05-28T01:45:28.726Z,20.60
2017-05-28T01:47:57.050Z,20.50
2017-05-28T01:50:25.481Z,20.50
2017-05-28T01:52:53.035Z,20.50
2017-05-28T01:55:21.544Z,20.40
2017-05-28T01:57:49.867Z,20.40
2017-05-28T02:00:18.189Z,20.30
2017-05-28T02:02:46.598Z,20.30
2017-05-28T02:05:16.538Z,20.20
2017-05-28T02:07:44.859Z,20.20
2017-05-28T02:10:13.176Z,20.20
2017-05-28T02:12:41.646Z,20.10
2017-05-28T02:15:09.968Z,20.10
2017-05-28T02:17:38.326Z,20.10
2017-05-28T02:20:06.645Z,20.10
2017-05-28T02:22:35.033Z,20.10
2017-05-28T02:25:03.356Z,20.00
2017-05-28T02:27:31.678Z,20.00
2017-05-28T02:30:01.864Z,19.90
2017-05-28T02:32:30.191Z,19.80
2017-05-28T02:34:58.510Z,19.70
2017-05-28T02:37:26.874Z,19.60
2017-05-28T02:39:54.884Z,19.60
2017-05-28T02:42:23.203Z,19.50
2017-05-28T02:44:51.511Z,19.40
2017-05-28T02:47:19.947Z,19.40
2017-05-28T02:49:48.273Z,19.30
2017-05-28T02:52:17.859Z,19.30
2017-05-28T02:54:46.177Z,19.30
2017-05-28T02:57:14.496Z,19.20
2017-05-28T02:59:42.855Z,19.20
2017-05-28T03:02:11.174Z,19.20
2017-05-28T03:04:39.617Z,19.10
2017-05-28T03:07:07.952Z,19.10
2017-05-28T03:09:36.310Z,19.00
2017-05-28T03:12:04.633Z,18.90
2017-05-28T03:14:33.424Z,18.90
2017-05-28T03:17:01.743Z,18.80
2017-05-28T03:19:30.086Z,18.80
2017-05-28T03:22:03.524Z,18.80
2017-05-28T03:24:31.840Z,18.80
2017-05-28T03:27:00.199Z,18.70
2017-05-28T03:29:28.526Z,18.70
2017-05-28T03:31:56.893Z,18.70
2017-05-28T03:34:25.374Z,18.70
2017-05-28T03:36:53.695Z,18.70
2017-05-28T03:39:22.014Z,18.60
2017-05-28T03:41:50.661Z,18.60
2017-05-28T03:44:19.062Z,18.60
2017-05-28T03:46:47.378Z,18.60
2017-05-28T03:49:15.698Z,18.50
2017-05-28T03:51:44.062Z,18.50
2017-05-28T03:54:15.406Z,18.50
2017-05-28T03:56:43.722Z,18.50
2017-05-28T03:59:13.157Z,18.50
2017-05-28T04:01:41.573Z,18.50
2017-05-28T04:04:09.898Z,18.60
2017-05-28T04:06:38.310Z,18.60
2017-05-28T04:09:05.866Z,18.50
2017-05-28T04:11:35.447Z,18.60
2017-05-28T04:14:03.767Z,18.60
2017-05-28T04:16:32.146Z,18.60
2017-05-28T04:19:00.462Z,18.60
2017-05-28T04:21:28.782Z,18.60
2017-05-28T04:23:57.190Z,18.60
2017-05-28T04:26:25.505Z,18.60
2017-05-28T04:28:53.866Z,18.60
2017-05-28T04:31:22.187Z,18.70
2017-05-28T04:33:50.565Z,18.70
2017-05-28T04:36:18.886Z,18.70
2017-05-28T04:38:47.207Z,18.70
2017-05-28T04:41:15.613Z,18.70
2017-05-28T04:43:43.930Z,18.80
2017-05-28T04:46:12.285Z,18.70
2017-05-28T04:48:40.244Z,18.70
2017-05-28T04:51:08.562Z,18.70
2017-05-28T04:53:39.575Z,18.80
2017-05-28T04:56:08.006Z,18.80
2017-05-28T04:58:36.384Z,18.80
2017-05-28T05:01:04.711Z,18.80
2017-05-28T05:03:33.460Z,18.90
2017-05-28T05:06:01.783Z,18.90
2017-05-28T05:08:30.102Z,18.90
2017-05-28T05:10:58.578Z,18.90
2017-05-28T05:13:26.938Z,18.90
2017-05-28T05:15:55.302Z,18.90
2017-05-28T05:18:23.618Z,18.90
2017-05-28T05:20:52.350Z,18.90
2017-05-28T05:23:20.675Z,19.00
2017-05-28T05:25:48.990Z,19.10
2017-05-28T05:28:17.643Z,19.10
2017-05-28T05:30:45.971Z,19.20
2017-05-28T05:33:14.284Z,19.20
2017-05-28T05:35:42.970Z,19.30
2017-05-28T05:38:11.293Z,19.40
2017-05-28T05:40:39.615Z,19.40
2017-05-28T05:43:08.122Z,19.50
2017-05-28T05:45:36.766Z,19.50
2017-05-28T05:48:05.091Z,19.60
2017-05-28T05:50:33.413Z,19.60
2017-05-28T05:53:01.835Z,19.70
2017-05-28T05:55:31.024Z,19.70
2017-05-28T05:57:59.645Z,19.70
2017-05-28T06:00:27.959Z,19.80
2017-05-28T06:02:56.383Z,19.80
2017-05-28T06:05:24.753Z,19.90
2017-05-28T06:07:53.073Z,19.90
2017-05-28T06:10:21.438Z,19.90
2017-05-28T06:12:49.763Z,20.00
2017-05-28T06:15:17.663Z,19.90
2017-05-28T06:17:46.055Z,20.00
2017-05-28T06:20:14.383Z,20.00
2017-05-28T06:22:42.807Z,20.00
2017-05-28T06:25:11.131Z,20.00
2017-05-28T06:27:39.643Z,20.00
2017-05-28T06:30:07.978Z,20.00
2017-05-28T06:32:36.469Z,20.00
2017-05-28T06:35:04.029Z,20.00
2017-05-28T06:37:32.502Z,20.00
2017-05-28T06:40:00.866Z,20.00
2017-05-28T06:42:29.194Z,20.00
2017-05-28T06:44:58.119Z,20.10
2017-05-28T06:47:26.437Z,20.10
2017-05-28T06:49:54.766Z,20.10
2017-05-28T06:52:23.126Z,20.20
2017-05-28T06:54:52.721Z,20.20
2017-05-28T06:57:21.226Z,20.30
2017-05-28T06:59:50.086Z,20.40
2017-05-28T07:02:18.450Z,20.50
2017-05-28T07:04:46.007Z,20.50
2017-05-28T07:07:14.483Z,20.50
2017-05-28T07:09:42.819Z,20.60
2017-05-28T07:12:11.150Z,20.70
2017-05-28T07:14:39.821Z,20.80
2017-05-28T07:17:08.142Z,20.90
2017-05-28T07:19:36.474Z,21.10
2017-05-28T07:22:09.910Z,21.20
2017-05-28T07:24:37.506Z,21.30
2017-05-28T07:27:05.826Z,21.60
2017-05-28T07:29:34.226Z,21.80
2017-05-28T07:32:02.547Z,22.00
2017-05-28T07:34:30.875Z,22.10
2017-05-28T07:36:59.669Z,22.10
2017-05-28T07:39:27.986Z,22.20
2017-05-28T07:41:56.307Z,22.40
2017-05-28T07:44:24.740Z,22.70
2017-05-28T07:46:53.118Z,22.90
2017-05-28T07:49:21.435Z,23.10
2017-05-28T07:51:49.962Z,23.30
2017-05-28T07:54:19.007Z,23.30
2017-05-28T07:56:47.346Z,23.80
2017-05-28T07:59:16.047Z,24.00
2017-05-28T08:01:44.367Z,24.20
2017-05-28T08:04:13.761Z,24.40
2017-05-28T08:06:42.383Z,24.50
2017-05-28T08:09:10.703Z,24.50
2017-05-28T08:11:39.029Z,24.40
2017-05-28T08:14:07.381Z,24.30
2017-05-28T08:16:35.842Z,24.40
2017-05-28T08:19:04.158Z,24.50
2017-05-28T08:21:32.469Z,24.50
2017-05-28T08:24:01.347Z,24.60
2017-05-28T08:26:29.663Z,24.70
2017-05-28T08:28:58.034Z,24.80
2017-05-28T08:31:26.351Z,25.00
2017-05-28T08:33:54.676Z,25.30
2017-05-28T08:36:23.041Z,25.50
2017-05-28T08:38:51.354Z,25.80
2017-05-28T08:41:19.914Z,25.80
2017-05-28T08:43:48.239Z,25.80
2017-05-28T08:46:16.602Z,25.70
2017-05-28T08:48:44.971Z,25.70
2017-05-28T08:51:13.295Z,25.70
2017-05-28T08:53:41.654Z,25.70
2017-05-28T08:56:10.182Z,25.80
2017-05-28T08:58:38.993Z,25.90
2017-05-28T09:01:07.317Z,26.00
2017-05-28T09:03:35.642Z,26.20
2017-05-28T09:06:04.003Z,26.40
2017-05-28T09:08:32.354Z,26.30
2017-05-28T09:11:00.742Z,26.10
2017-05-28T09:13:29.064Z,25.80
2017-05-28T09:15:57.491Z,25.60
2017-05-28T09:18:26.639Z,25.40
2017-05-28T09:20:55.329Z,25.20
2017-05-28T09:23:23.646Z,25.00
2017-05-28T09:25:52.189Z,24.80
2017-05-28T09:28:20.526Z,24.70
2017-05-28T09:30:48.859Z,24.50
2017-05-28T09:33:17.830Z,24.40
2017-05-28T09:35:46.149Z,24.30
2017-05-28T09:38:14.480Z,24.30
2017-05-28T09:40:42.843Z,24.10
2017-05-28T09:43:11.209Z,23.90
2017-05-28T09:45:39.533Z,23.70
2017-05-28T09:48:09.043Z,23.50
2017-05-28T09:50:37.370Z,23.50
2017-05-28T09:53:05.698Z,23.40
2017-05-28T09:55:34.890Z,23.40
2017-05-28T09:58:03.263Z,23.40
2017-05-28T10:00:31.717Z,23.30
2017-05-28T10:03:00.043Z,23.30
2017-05-28T10:05:28.474Z,23.30
2017-05-28T10:07:57.511Z,23.20
2017-05-28T10:10:25.837Z,23.10
2017-05-28T10:12:54.651Z,23.10
2017-05-28T10:15:22.978Z,23.00
2017-05-28T10:17:51.306Z,23.00
2017-05-28T10:20:19.670Z,23.00
2017-05-28T10:22:48.044Z,23.00
2017-05-28T10:25:16.410Z,23.00
2017-05-28T10:27:45.398Z,23.00
2017-05-28T10:30:13.759Z,23.00
2017-05-28T10:32:42.083Z,23.10
2017-05-28T10:35:10.533Z,23.10
2017-05-28T10:37:39.186Z,23.20
2017-05-28T10:40:07.510Z,23.20
2017-05-28T10:42:35.839Z,23.20
2017-05-28T10:45:04.207Z,23.30
2017-05-28T10:47:32.529Z,23.30
2017-05-28T10:50:01.007Z,23.40
2017-05-28T10:52:29.337Z,23.60
2017-05-28T10:54:57.784Z,23.70
2017-05-28T10:57:26.274Z,23.90
2017-05-28T10:59:54.589Z,24.10
2017-05-28T11:02:23.368Z,24.40
2017-05-28T11:04:51.690Z,24.70
2017-05-28T11:07:20.010Z,25.00
2017-05-28T11:09:48.378Z,25.20
2017-05-28T11:12:16.706Z,25.40
2017-05-28T11:14:45.159Z,25.50
2017-05-28T11:17:13.497Z,25.60
2017-05-28T11:19:41.974Z,25.70
2017-05-28T11:22:13.656Z,25.80
2017-05-28T11:24:42.487Z,25.90
2017-05-28T11:27:10.809Z,26.10
2017-05-28T11:29:39.130Z,26.30
2017-05-28T11:32:07.693Z,26.30
2017-05-28T11:34:36.090Z,26.50
2017-05-28T11:37:04.466Z,26.60
2017-05-28T11:39:32.793Z,26.70
2017-05-28T11:42:01.154Z,26.90
2017-05-28T11:44:29.476Z,27.00
2017-05-28T11:46:57.835Z,27.00
2017-05-28T11:49:28.930Z,26.90
2017-05-28T11:51:57.250Z,26.90
2017-05-28T11:54:25.568Z,26.90
2017-05-28T11:56:54.365Z,27.00
2017-05-28T11:59:22.890Z,27.10
2017-05-28T12:01:51.247Z,27.40
2017-05-28T12:04:19.571Z,27.70
2017-05-28T12:06:48.431Z,27.90
2017-05-28T12:09:16.747Z,28.00
2017-05-28T12:11:45.066Z,28.20
2017-05-28T12:14:13.418Z,28.30
2017-05-28T12:16:41.730Z,28.50
2017-05-28T12:19:10.779Z,28.60
2017-05-28T12:21:39.094Z,28.70
2017-05-28T12:24:07.427Z,28.90
2017-05-28T12:26:35.948Z,29.00
2017-05-28T12:29:04.274Z,29.10
2017-05-28T12:31:32.738Z,29.10
2017-05-28T12:34:01.064Z,29.20
2017-05-28T12:36:29.379Z,29.30
2017-05-28T12:38:58.151Z,29.30
2017-05-28T12:41:26.469Z,29.40
2017-05-28T12:43:54.786Z,29.60
2017-05-28T12:46:23.253Z,29.60
2017-05-28T12:48:51.567Z,29.70
2017-05-28T12:51:19.884Z,29.80
2017-05-28T12:53:48.277Z,30.00
2017-05-28T12:56:16.629Z,30.10
2017-05-28T12:58:45.835Z,30.20
2017-05-28T13:01:14.158Z,30.30
2017-05-28T13:03:45.428Z,30.50
2017-05-28T13:06:13.752Z,30.60
2017-05-28T13:08:42.063Z,30.70
2017-05-28T13:11:10.426Z,30.80
2017-05-28T13:13:39.268Z,30.90
2017-05-28T13:16:07.608Z,30.90
2017-05-28T13:18:35.939Z,31.00
2017-05-28T13:21:07.268Z,31.00
2017-05-28T13:23:35.639Z,31.00
2017-05-28T13:26:03.980Z,31.00
2017-05-28T13:28:32.375Z,31.00
2017-05-28T13:31:03.266Z,31.10
2017-05-28T13:33:31.694Z,31.00
2017-05-28T13:36:00.022Z,31.10
2017-05-28T13:38:28.595Z,31.00
2017-05-28T13:40:56.926Z,31.10
2017-05-28T13:43:25.606Z,31.00
2017-05-28T13:45:53.929Z,31.10
2017-05-28T13:48:22.247Z,31.20
2017-05-28T13:50:50.615Z,31.30
2017-05-28T13:53:19.386Z,31.20
2017-05-28T13:55:47.759Z,31.20
2017-05-28T13:58:16.074Z,31.20
2017-05-28T14:00:50.147Z,31.10
2017-05-28T14:03:19.754Z,31.10
2017-05-28T14:05:48.129Z,31.20
2017-05-28T14:08:16.503Z,31.30
2017-05-28T14:10:44.830Z,31.30
2017-05-28T14:13:13.315Z,31.10
2017-05-28T14:15:41.906Z,30.80
2017-05-28T14:18:10.756Z,30.80
2017-05-28T14:20:43.918Z,30.80
2017-05-28T14:23:12.635Z,30.90
2017-05-28T14:25:40.972Z,31.10
2017-05-28T14:28:09.302Z,31.20
2017-05-28T14:30:37.671Z,31.30
2017-05-28T14:33:06.278Z,31.30
2017-05-28T14:35:34.794Z,31.30
2017-05-28T14:38:03.112Z,31.40
2017-05-28T14:40:33.119Z,31.30
2017-05-28T14:43:01.438Z,31.30
2017-05-28T14:45:31.014Z,31.20
2017-05-28T14:47:59.700Z,31.20
2017-05-28T14:50:30.290Z,31.10
2017-05-28T14:52:58.648Z,31.10
2017-05-28T14:55:29.252Z,31.10
2017-05-28T14:57:57.630Z,31.10
2017-05-28T15:00:26.014Z,31.00
2017-05-28T15:02:54.334Z,30.90
2017-05-28T15:05:25.822Z,30.80
2017-05-28T15:07:54.179Z,30.80
2017-05-28T15:10:22.491Z,30.60
2017-05-28T15:12:51.275Z,30.40
2017-05-28T15:15:19.606Z,30.30
2017-05-28T15:17:47.930Z,30.20
2017-05-28T15:20:16.301Z,30.20
2017-05-28T15:22:47.518Z,30.20
2017-05-28T15:25:15.842Z,30.20
2017-05-28T15:27:46.465Z,30.30
2017-05-28T15:30:14.865Z,30.40
2017-05-28T15:32:43.526Z,30.50
2017-05-28T15:35:11.853Z,30.80
2017-05-28T15:37:40.182Z,30.90
2017-05-28T15:40:10.823Z,31.00
2017-05-28T15:42:39.146Z,31.10
2017-05-28T15:45:09.026Z,31.20
2017-05-28T15:47:37.340Z,31.20
2017-05-28T15:50:05.651Z,31.30
2017-05-28T15:52:34.006Z,31.40
2017-05-28T15:55:02.328Z,31.40
2017-05-28T15:57:30.772Z,31.60
2017-05-28T15:59:59.088Z,31.60
2017-05-28T16:02:27.826Z,31.60
2017-05-28T16:04:56.135Z,31.70
2017-05-28T16:07:24.454Z,31.90
2017-05-28T16:09:52.842Z,32.00
2017-05-28T16:12:21.160Z,32.10
2017-05-28T16:14:49.691Z,32.10
2017-05-28T16:17:18.009Z,32.20
2017-05-28T16:19:46.834Z,32.30
2017-05-28T16:22:15.157Z,32.30
2017-05-28T16:24:46.746Z,32.40
2017-05-28T16:27:15.119Z,32.40
2017-05-28T16:29:43.438Z,32.40
2017-05-28T16:32:13.911Z,32.40
2017-05-28T16:34:42.550Z,32.40
2017-05-28T16:37:10.870Z,32.30
2017-05-28T16:39:39.607Z,32.40
2017-05-28T16:42:08.240Z,32.40
2017-05-28T16:44:36.547Z,32.50
2017-05-28T16:47:04.994Z,32.40
2017-05-28T16:49:36.368Z,32.30
2017-05-28T16:52:04.690Z,32.30
2017-05-28T16:54:33.008Z,32.20
2017-05-28T16:57:01.790Z,32.10
2017-05-28T16:59:30.112Z,32.00
2017-05-28T17:01:58.435Z,31.70
2017-05-28T17:04:27.148Z,31.50
2017-05-28T17:06:55.478Z,31.50
2017-05-28T17:09:25.186Z,31.40
2017-05-28T17:11:54.070Z,31.30
2017-05-28T17:14:22.397Z,31.30
2017-05-28T17:16:50.715Z,31.10
2017-05-28T17:19:19.106Z,30.90
2017-05-28T17:21:46.763Z,30.90
2017-05-28T17:24:15.126Z,30.60
2017-05-28T17:26:43.447Z,30.50
2017-05-28T17:29:17.102Z,30.40
2017-05-28T17:31:45.445Z,30.30
2017-05-28T17:34:15.030Z,30.20
2017-05-28T17:36:43.353Z,30.00
2017-05-28T17:39:11.686Z,29.90
2017-05-28T17:41:40.045Z,29.80
2017-05-28T17:44:08.371Z,29.60
2017-05-28T17:46:40.814Z,29.60
2017-05-28T17:49:09.136Z,29.50
2017-05-28T17:51:37.458Z,29.40
2017-05-28T17:54:05.820Z,29.30
2017-05-28T17:56:34.629Z,29.20
2017-05-28T17:59:05.843Z,29.00
2017-05-28T18:01:34.201Z,28.90
2017-05-28T18:04:02.629Z,28.80
2017-05-28T18:06:30.948Z,28.70
2017-05-28T18:08:59.703Z,28.50
2017-05-28T18:11:28.467Z,28.40
2017-05-28T18:13:56.789Z,28.30
2017-05-28T18:16:25.490Z,28.30
2017-05-28T18:18:53.823Z,28.10
2017-05-28T18:21:22.142Z,28.10
2017-05-28T18:23:50.794Z,28.00
2017-05-28T18:26:19.109Z,27.80
2017-05-28T18:28:47.508Z,27.70
2017-05-28T18:31:15.838Z,27.60
2017-05-28T18:33:44.216Z,27.50
2017-05-28T18:36:12.538Z,27.50
2017-05-28T18:38:40.852Z,27.40
2017-05-28T18:41:09.406Z,27.30
2017-05-28T18:43:37.722Z,27.30
2017-05-28T18:46:06.197Z,27.30
2017-05-28T18:48:34.556Z,27.30
2017-05-28T18:51:02.887Z,27.20
2017-05-28T18:53:30.484Z,27.20
2017-05-28T18:55:58.813Z,27.20
2017-05-28T18:58:27.370Z,27.00
2017-05-28T19:00:55.878Z,26.90
2017-05-28T19:03:24.670Z,26.70
2017-05-28T19:05:52.990Z,26.60
2017-05-28T19:08:21.302Z,26.60
2017-05-28T19:10:49.983Z,26.50
2017-05-28T19:13:18.312Z,26.50
2017-05-28T19:15:46.630Z,26.40
2017-05-28T19:18:15.070Z,26.40
2017-05-28T19:20:43.402Z,26.40
2017-05-28T19:23:11.771Z,26.30
2017-05-28T19:25:40.115Z,26.30
2017-05-28T19:28:08.970Z,26.20
2017-05-28T19:30:37.304Z,26.20
2017-05-28T19:33:05.631Z,26.10
2017-05-28T19:35:34.221Z,26.00
2017-05-28T19:38:02.538Z,25.80
2017-05-28T19:40:30.920Z,25.70
2017-05-28T19:42:59.251Z,25.60
2017-05-28T19:45:27.593Z,25.50
2017-05-28T19:47:55.957Z,25.50
2017-05-28T19:50:24.282Z,25.50
2017-05-28T19:52:52.151Z,25.40
2017-05-28T19:55:20.474Z,25.40
2017-05-28T19:57:48.802Z,25.30
2017-05-28T20:00:19.306Z,25.10
2017-05-28T20:02:47.708Z,25.10
2017-05-28T20:05:16.049Z,25.00
2017-05-28T20:07:46.941Z,25.00
2017-05-28T20:10:15.886Z,25.00
2017-05-28T20:12:44.213Z,24.90
2017-05-28T20:15:12.539Z,24.80
2017-05-28T20:17:41.064Z,24.80
2017-05-28T20:20:09.390Z,24.80
2017-05-28T20:22:37.714Z,24.70
2017-05-28T20:25:06.144Z,24.70
2017-05-28T20:27:34.474Z,24.60
2017-05-28T20:30:03.294Z,24.60
2017-05-28T20:32:31.627Z,24.50
2017-05-28T20:34:59.955Z,24.50
2017-05-28T20:37:28.322Z,24.40
2017-05-28T20:39:56.654Z,24.30
2017-05-28T20:42:26.711Z,24.10
2017-05-28T20:44:54.275Z,24.10
2017-05-28T20:47:22.611Z,24.00
2017-05-28T20:49:50.976Z,24.00
2017-05-28T20:52:19.714Z,24.00
2017-05-28T20:54:48.034Z,24.00
2017-05-28T20:57:16.354Z,23.90
2017-05-28T20:59:45.031Z,23.90
2017-05-28T21:02:13.358Z,23.80
2017-05-28T21:04:41.727Z,23.70
2017-05-28T21:07:10.053Z,23.60
2017-05-28T21:09:38.413Z,23.60
2017-05-28T21:12:07.080Z,23.50
2017-05-28T21:14:35.398Z,23.50
2017-05-28T21:17:03.730Z,23.40
2017-05-28T21:19:32.177Z,23.30
2017-05-28T21:22:00.538Z,23.30
2017-05-28T21:24:28.854Z,23.10
2017-05-28T21:26:57.670Z,22.90
2017-05-28T21:29:25.999Z,22.90
2017-05-28T21:31:54.324Z,22.80
2017-05-28T21:34:22.755Z,22.80
2017-05-28T21:36:51.085Z,22.80
2017-05-28T21:39:21.091Z,22.80
2017-05-28T21:41:49.414Z,22.80
2017-05-28T21:44:17.738Z,22.80
2017-05-28T21:46:46.106Z,22.80
2017-05-28T21:49:14.474Z,22.70
2017-05-28T21:51:42.807Z,22.70
2017-05-28T21:54:11.598Z,22.60
2017-05-28T21:56:39.919Z,22.60
2017-05-28T21:59:09.607Z,22.50
2017-05-28T22:01:37.970Z,22.50
2017-05-28T22:04:06.292Z,22.40
2017-05-28T22:06:34.656Z,22.40
2017-05-28T22:09:02.978Z,22.40
2017-05-28T22:11:31.952Z,22.40
2017-05-28T22:14:00.281Z,22.30
2017-05-28T22:16:28.606Z,22.20
2017-05-28T22:18:56.966Z,22.20
2017-05-28T22:21:25.294Z,22.10
2017-05-28T22:23:53.659Z,22.10
2017-05-28T22:26:21.980Z,22.00
2017-05-28T22:28:50.927Z,22.00
2017-05-28T22:31:19.250Z,21.90
2017-05-28T22:33:47.576Z,22.00
2017-05-28T22:36:15.953Z,22.00
2017-05-28T22:38:44.274Z,22.00
2017-05-28T22:41:12.646Z,22.00
2017-05-28T22:43:40.963Z,22.00
2017-05-28T22:46:09.386Z,22.00
2017-05-28T22:48:37.706Z,22.00
2017-05-28T22:51:06.074Z,22.00
2017-05-28T22:53:34.472Z,22.00
2017-05-28T22:56:02.788Z,22.00
2017-05-28T22:58:31.110Z,22.00
2017-05-28T23:01:00.982Z,21.90
2017-05-28T23:03:29.307Z,21.90
2017-05-28T23:05:57.672Z,21.90
2017-05-28T23:08:26.031Z,21.80
2017-05-28T23:10:54.358Z,21.80
2017-05-28T23:13:23.167Z,21.70
2017-05-28T23:15:51.490Z,21.70
2017-05-28T23:18:19.815Z,21.60
2017-05-28T23:20:48.247Z,21.60
2017-05-28T23:23:16.573Z,21.50
2017-05-28T23:25:45.282Z,21.50
2017-05-28T23:28:13.613Z,21.40
2017-05-28T23:30:41.940Z,21.40
2017-05-28T23:33:10.303Z,21.40
2017-05-28T23:35:38.628Z,21.30
2017-05-28T23:38:07.178Z,21.30
2017-05-28T23:40:35.501Z,21.30
2017-05-28T23:43:04.003Z,21.20
2017-05-28T23:45:32.322Z,21.20
2017-05-28T23:48:00.970Z,21.20
2017-05-28T23:50:29.294Z,21.10
2017-05-28T23:52:57.621Z,21.10
2017-05-28T23:55:26.122Z,21.00
2017-05-28T23:57:54.450Z,21.00
